sensor_id;sensor_type;location;lat;lon;timestamp;temperature;humidity
2729;DHT22;1372;47.956;7.830;2023-04-06T00:01:54;1.40;99.90
2729;DHT22;1372;47.956;7.830;2023-04-06T00:04:23;1.50;99.90
2729;DHT22;1372;47.956;7.830;2023-04-06T00:06:52;1.50;99.90
2729;DHT22;1372;47.956;7.830;2023-04-06T00:09:21;1.40;99.90
2729;DHT22;1372;47.956;7.830;2023-04-06T00:11:50;1.40;99.90
2729;DHT22;1372;47.956;7.830;2023-04-06T00:14:21;1.40;99.90
2729;DHT22;1372;47.956;7.830;2023-04-06T00:16:51;1.40;99.90
2729;DHT22;1372;47.956;7.830;2023-04-06T00:19:22;1.50;99.90
2729;DHT22;1372;47.956;7.830;2023-04-06T00:21:51;1.40;99.90
2729;DHT22;1372;47.956;7.830;2023-04-06T00:24:20;1.40;99.90
2729;DHT22;1372;47.956;7.830;2023-04-06T00:26:48;1.40;99.90
2729;DHT22;1372;47.956;7.830;2023-04-06T00:29:17;1.30;99.90
2729;DHT22;1372;47.956;7.830;2023-04-06T00:31:47;1.40;99.90
2729;DHT22;1372;47.956;7.830;2023-04-06T00:34:16;1.30;99.90
2729;DHT22;1372;47.956;7.830;2023-04-06T00:36:46;1.30;99.90
2729;DHT22;1372;47.956;7.830;2023-04-06T00:39:15;1.20;99.90
2729;DHT22;1372;47.956;7.830;2023-04-06T00:41:51;1.20;99.90
2729;DHT22;1372;47.956;7.830;2023-04-06T00:44:21;1.30;99.90
2729;DHT22;1372;47.956;7.830;2023-04-06T00:46:50;1.20;99.90
2729;DHT22;1372;47.956;7.830;2023-04-06T00:49:19;1.20;99.90
2729;DHT22;1372;47.956;7.830;2023-04-06T00:51:49;1.10;99.90
2729;DHT22;1372;47.956;7.830;2023-04-06T00:54:19;1.10;99.90
2729;DHT22;1372;47.956;7.830;2023-04-06T00:56:50;1.10;99.90
2729;DHT22;1372;47.956;7.830;2023-04-06T00:59:19;1.20;99.90
2729;DHT22;1372;47.956;7.830;2023-04-06T01:01:48;1.10;99.90
2729;DHT22;1372;47.956;7.830;2023-04-06T01:04:17;1.10;99.90
2729;DHT22;1372;47.956;7.830;2023-04-06T01:06:48;1.10;99.90
2729;DHT22;1372;47.956;7.830;2023-04-06T01:09:18;1.10;99.90
2729;DHT22;1372;47.956;7.830;2023-04-06T01:11:46;1.20;99.90
2729;DHT22;1372;47.956;7.830;2023-04-06T01:14:18;1.20;99.90
2729;DHT22;1372;47.956;7.830;2023-04-06T01:16:47;1.30;99.90
2729;DHT22;1372;47.956;7.830;2023-04-06T01:19:15;1.20;99.90
2729;DHT22;1372;47.956;7.830;2023-04-06T01:21:45;1.20;99.90
2729;DHT22;1372;47.956;7.830;2023-04-06T01:24:15;1.20;99.90
2729;DHT22;1372;47.956;7.830;2023-04-06T01:26:44;1.20;99.90
2729;DHT22;1372;47.956;7.830;2023-04-06T01:29:13;1.10;99.90
2729;DHT22;1372;47.956;7.830;2023-04-06T01:31:42;1.00;99.90
2729;DHT22;1372;47.956;7.830;2023-04-06T01:34:13;1.10;99.90
2729;DHT22;1372;47.956;7.830;2023-04-06T01:36:42;1.10;99.90
2729;DHT22;1372;47.956;7.830;2023-04-06T01:39:11;1.00;99.90
2729;DHT22;1372;47.956;7.830;2023-04-06T01:41:42;1.00;99.90
2729;DHT22;1372;47.956;7.830;2023-04-06T01:44:11;1.00;99.90
2729;DHT22;1372;47.956;7.830;2023-04-06T01:46:39;1.00;99.90
2729;DHT22;1372;47.956;7.830;2023-04-06T01:49:08;1.00;99.90
2729;DHT22;1372;47.956;7.830;2023-04-06T01:51:37;1.00;99.90
2729;DHT22;1372;47.956;7.830;2023-04-06T01:54:06;0.90;99.90
2729;DHT22;1372;47.956;7.830;2023-04-06T01:56:35;0.90;99.90
2729;DHT22;1372;47.956;7.830;2023-04-06T01:59:06;0.80;99.90
2729;DHT22;1372;47.956;7.830;2023-04-06T02:01:35;0.80;99.90
2729;DHT22;1372;47.956;7.830;2023-04-06T02:04:04;0.80;99.90
2729;DHT22;1372;47.956;7.830;2023-04-06T02:06:33;0.70;99.90
2729;DHT22;1372;47.956;7.830;2023-04-06T02:09:02;0.70;99.90
2729;DHT22;1372;47.956;7.830;2023-04-06T02:11:31;0.70;99.90
2729;DHT22;1372;47.956;7.830;2023-04-06T02:14:00;0.70;99.90
2729;DHT22;1372;47.956;7.830;2023-04-06T02:16:30;0.70;99.90
2729;DHT22;1372;47.956;7.830;2023-04-06T02:18:59;0.70;99.90
2729;DHT22;1372;47.956;7.830;2023-04-06T02:21:28;0.70;99.90
2729;DHT22;1372;47.956;7.830;2023-04-06T02:23:57;0.60;99.90
2729;DHT22;1372;47.956;7.830;2023-04-06T02:26:26;0.60;99.90
2729;DHT22;1372;47.956;7.830;2023-04-06T02:28:55;0.60;99.90
2729;DHT22;1372;47.956;7.830;2023-04-06T02:31:24;0.60;99.90
2729;DHT22;1372;47.956;7.830;2023-04-06T02:33:54;0.50;99.90
2729;DHT22;1372;47.956;7.830;2023-04-06T02:36:23;0.50;99.90
2729;DHT22;1372;47.956;7.830;2023-04-06T02:38:53;0.70;99.90
2729;DHT22;1372;47.956;7.830;2023-04-06T02:41:22;0.70;99.90
2729;DHT22;1372;47.956;7.830;2023-04-06T02:43:53;0.70;99.90
2729;DHT22;1372;47.956;7.830;2023-04-06T02:46:22;0.60;99.90
2729;DHT22;1372;47.956;7.830;2023-04-06T02:48:51;0.50;99.90
2729;DHT22;1372;47.956;7.830;2023-04-06T02:51:21;0.50;99.90
2729;DHT22;1372;47.956;7.830;2023-04-06T02:53:50;0.40;99.90
2729;DHT22;1372;47.956;7.830;2023-04-06T02:56:19;0.40;99.90
2729;DHT22;1372;47.956;7.830;2023-04-06T02:58:48;0.50;99.90
2729;DHT22;1372;47.956;7.830;2023-04-06T03:01:17;0.50;99.90
2729;DHT22;1372;47.956;7.830;2023-04-06T03:03:46;0.40;99.90
2729;DHT22;1372;47.956;7.830;2023-04-06T03:06:15;0.40;99.90
2729;DHT22;1372;47.956;7.830;2023-04-06T03:08:45;0.30;99.90
2729;DHT22;1372;47.956;7.830;2023-04-06T03:11:14;0.30;99.90
2729;DHT22;1372;47.956;7.830;2023-04-06T03:13:44;0.30;99.90
2729;DHT22;1372;47.956;7.830;2023-04-06T03:16:13;0.30;99.90
2729;DHT22;1372;47.956;7.830;2023-04-06T03:18:42;0.30;99.90
2729;DHT22;1372;47.956;7.830;2023-04-06T03:21:12;0.20;99.90
2729;DHT22;1372;47.956;7.830;2023-04-06T03:23:42;0.20;99.90
2729;DHT22;1372;47.956;7.830;2023-04-06T03:26:14;0.20;99.90
2729;DHT22;1372;47.956;7.830;2023-04-06T03:28:43;0.20;99.90
2729;DHT22;1372;47.956;7.830;2023-04-06T03:31:12;0.20;99.90
2729;DHT22;1372;47.956;7.830;2023-04-06T03:33:41;0.10;99.90
2729;DHT22;1372;47.956;7.830;2023-04-06T03:36:12;0.20;99.90
2729;DHT22;1372;47.956;7.830;2023-04-06T03:38:41;0.20;99.90
2729;DHT22;1372;47.956;7.830;2023-04-06T03:41:10;0.10;99.90
2729;DHT22;1372;47.956;7.830;2023-04-06T03:43:41;0.10;99.90
2729;DHT22;1372;47.956;7.830;2023-04-06T03:46:10;0.10;99.90
2729;DHT22;1372;47.956;7.830;2023-04-06T03:48:39;0.10;99.90
2729;DHT22;1372;47.956;7.830;2023-04-06T03:51:07;0.10;99.90
2729;DHT22;1372;47.956;7.830;2023-04-06T03:53:36;0.10;99.90
2729;DHT22;1372;47.956;7.830;2023-04-06T03:56:05;0.10;99.90
2729;DHT22;1372;47.956;7.830;2023-04-06T03:58:35;0.20;99.90
2729;DHT22;1372;47.956;7.830;2023-04-06T04:01:05;0.10;99.90
2729;DHT22;1372;47.956;7.830;2023-04-06T04:03:34;0.10;99.90
2729;DHT22;1372;47.956;7.830;2023-04-06T04:06:03;0.20;99.90
2729;DHT22;1372;47.956;7.830;2023-04-06T04:08:33;0.10;99.90
2729;DHT22;1372;47.956;7.830;2023-04-06T04:11:02;0.10;99.90
2729;DHT22;1372;47.956;7.830;2023-04-06T04:13:31;0.10;99.90
2729;DHT22;1372;47.956;7.830;2023-04-06T04:16:00;0.20;99.90
2729;DHT22;1372;47.956;7.830;2023-04-06T04:18:31;0.10;99.90
2729;DHT22;1372;47.956;7.830;2023-04-06T04:21:02;0.20;99.90
2729;DHT22;1372;47.956;7.830;2023-04-06T04:23:31;0.20;99.90
2729;DHT22;1372;47.956;7.830;2023-04-06T04:26:03;0.10;99.90
2729;DHT22;1372;47.956;7.830;2023-04-06T04:28:32;0.10;99.90
2729;DHT22;1372;47.956;7.830;2023-04-06T04:31:04;0.10;99.90
2729;DHT22;1372;47.956;7.830;2023-04-06T04:33:34;0.10;99.90
2729;DHT22;1372;47.956;7.830;2023-04-06T04:36:04;0.10;99.90
2729;DHT22;1372;47.956;7.830;2023-04-06T04:38:33;0.10;99.90
2729;DHT22;1372;47.956;7.830;2023-04-06T04:41:02;0.10;99.90
2729;DHT22;1372;47.956;7.830;2023-04-06T04:43:31;0.10;99.90
2729;DHT22;1372;47.956;7.830;2023-04-06T04:46:00;0.00;99.90
2729;DHT22;1372;47.956;7.830;2023-04-06T04:48:28;0.00;99.90
2729;DHT22;1372;47.956;7.830;2023-04-06T04:50:59;-0.10;99.90
2729;DHT22;1372;47.956;7.830;2023-04-06T04:53:28;-0.20;99.90
2729;DHT22;1372;47.956;7.830;2023-04-06T04:55:57;-0.10;99.90
2729;DHT22;1372;47.956;7.830;2023-04-06T04:58:26;-0.10;99.90
2729;DHT22;1372;47.956;7.830;2023-04-06T05:00:54;0.00;99.90
2729;DHT22;1372;47.956;7.830;2023-04-06T05:03:26;0.00;99.90
2729;DHT22;1372;47.956;7.830;2023-04-06T05:05:55;-0.10;99.90
2729;DHT22;1372;47.956;7.830;2023-04-06T05:08:25;0.00;99.90
2729;DHT22;1372;47.956;7.830;2023-04-06T05:10:54;0.00;99.90
2729;DHT22;1372;47.956;7.830;2023-04-06T05:13:23;0.10;99.90
2729;DHT22;1372;47.956;7.830;2023-04-06T05:15:52;0.30;99.90
2729;DHT22;1372;47.956;7.830;2023-04-06T05:18:22;0.20;99.90
2729;DHT22;1372;47.956;7.830;2023-04-06T05:20:50;0.10;99.90
2729;DHT22;1372;47.956;7.830;2023-04-06T05:23:19;0.10;99.90
2729;DHT22;1372;47.956;7.830;2023-04-06T05:25:52;0.10;99.90
2729;DHT22;1372;47.956;7.830;2023-04-06T05:28:24;0.00;99.90
2729;DHT22;1372;47.956;7.830;2023-04-06T05:30:53;0.10;99.90
2729;DHT22;1372;47.956;7.830;2023-04-06T05:33:25;0.20;99.90
2729;DHT22;1372;47.956;7.830;2023-04-06T05:35:54;0.30;99.90
2729;DHT22;1372;47.956;7.830;2023-04-06T05:38:23;0.20;99.90
2729;DHT22;1372;47.956;7.830;2023-04-06T05:40:53;0.30;99.90
2729;DHT22;1372;47.956;7.830;2023-04-06T05:43:22;0.30;99.90
2729;DHT22;1372;47.956;7.830;2023-04-06T05:45:51;0.40;99.90
2729;DHT22;1372;47.956;7.830;2023-04-06T05:48:23;0.40;99.90
2729;DHT22;1372;47.956;7.830;2023-04-06T05:50:52;0.40;99.90
2729;DHT22;1372;47.956;7.830;2023-04-06T05:53:23;0.40;99.90
2729;DHT22;1372;47.956;7.830;2023-04-06T05:55:57;0.50;99.90
2729;DHT22;1372;47.956;7.830;2023-04-06T05:58:28;0.50;99.90
2729;DHT22;1372;47.956;7.830;2023-04-06T06:00:57;0.70;99.90
2729;DHT22;1372;47.956;7.830;2023-04-06T06:03:27;0.70;99.90
2729;DHT22;1372;47.956;7.830;2023-04-06T06:06:00;0.60;99.90
2729;DHT22;1372;47.956;7.830;2023-04-06T06:08:33;0.70;99.90
2729;DHT22;1372;47.956;7.830;2023-04-06T06:11:07;0.70;99.90
2729;DHT22;1372;47.956;7.830;2023-04-06T06:13:36;0.80;99.90
2729;DHT22;1372;47.956;7.830;2023-04-06T06:16:05;0.90;99.90
2729;DHT22;1372;47.956;7.830;2023-04-06T06:18:34;0.90;99.90
2729;DHT22;1372;47.956;7.830;2023-04-06T06:21:04;1.10;99.90
2729;DHT22;1372;47.956;7.830;2023-04-06T06:23:35;1.10;99.90
2729;DHT22;1372;47.956;7.830;2023-04-06T06:26:04;1.20;99.90
2729;DHT22;1372;47.956;7.830;2023-04-06T06:28:37;1.20;99.90
2729;DHT22;1372;47.956;7.830;2023-04-06T06:31:06;1.20;99.90
2729;DHT22;1372;47.956;7.830;2023-04-06T06:33:35;1.40;99.90
2729;DHT22;1372;47.956;7.830;2023-04-06T06:36:05;1.50;99.90
2729;DHT22;1372;47.956;7.830;2023-04-06T06:38:34;1.60;99.90
2729;DHT22;1372;47.956;7.830;2023-04-06T06:41:03;1.70;99.90
2729;DHT22;1372;47.956;7.830;2023-04-06T06:43:32;1.90;99.90
2729;DHT22;1372;47.956;7.830;2023-04-06T06:46:03;2.10;99.90
2729;DHT22;1372;47.956;7.830;2023-04-06T06:48:32;2.20;99.90
2729;DHT22;1372;47.956;7.830;2023-04-06T06:51:01;2.40;99.90
2729;DHT22;1372;47.956;7.830;2023-04-06T06:53:33;2.50;99.90
2729;DHT22;1372;47.956;7.830;2023-04-06T06:56:02;2.60;99.90
2729;DHT22;1372;47.956;7.830;2023-04-06T06:58:32;2.80;99.90
2729;DHT22;1372;47.956;7.830;2023-04-06T07:01:02;2.90;99.90
2729;DHT22;1372;47.956;7.830;2023-04-06T07:03:32;3.10;99.90
2729;DHT22;1372;47.956;7.830;2023-04-06T07:06:01;3.20;99.90
2729;DHT22;1372;47.956;7.830;2023-04-06T07:08:30;3.30;99.90
2729;DHT22;1372;47.956;7.830;2023-04-06T07:10:59;3.50;99.90
2729;DHT22;1372;47.956;7.830;2023-04-06T07:13:28;3.60;99.90
2729;DHT22;1372;47.956;7.830;2023-04-06T07:15:58;3.80;99.90
2729;DHT22;1372;47.956;7.830;2023-04-06T07:18:28;3.90;99.90
2729;DHT22;1372;47.956;7.830;2023-04-06T07:20:57;4.00;99.90
2729;DHT22;1372;47.956;7.830;2023-04-06T07:23:26;4.20;99.90
2729;DHT22;1372;47.956;7.830;2023-04-06T07:26:00;4.30;99.90
2729;DHT22;1372;47.956;7.830;2023-04-06T07:28:29;4.50;99.90
2729;DHT22;1372;47.956;7.830;2023-04-06T07:30:59;4.70;99.90
2729;DHT22;1372;47.956;7.830;2023-04-06T07:33:29;4.70;99.90
2729;DHT22;1372;47.956;7.830;2023-04-06T07:35:58;4.90;99.90
2729;DHT22;1372;47.956;7.830;2023-04-06T07:38:27;5.00;99.90
2729;DHT22;1372;47.956;7.830;2023-04-06T07:41:00;5.10;99.90
2729;DHT22;1372;47.956;7.830;2023-04-06T07:43:33;5.20;99.90
2729;DHT22;1372;47.956;7.830;2023-04-06T07:46:04;5.30;99.90
2729;DHT22;1372;47.956;7.830;2023-04-06T07:48:35;5.40;99.90
2729;DHT22;1372;47.956;7.830;2023-04-06T07:51:05;5.60;99.90
2729;DHT22;1372;47.956;7.830;2023-04-06T07:53:34;5.70;99.90
2729;DHT22;1372;47.956;7.830;2023-04-06T07:56:06;5.80;99.90
2729;DHT22;1372;47.956;7.830;2023-04-06T07:58:35;5.90;99.90
2729;DHT22;1372;47.956;7.830;2023-04-06T08:01:04;6.00;99.90
2729;DHT22;1372;47.956;7.830;2023-04-06T08:03:35;6.10;99.90
2729;DHT22;1372;47.956;7.830;2023-04-06T08:06:08;6.20;99.90
2729;DHT22;1372;47.956;7.830;2023-04-06T08:08:37;6.30;99.90
2729;DHT22;1372;47.956;7.830;2023-04-06T08:11:06;6.50;99.90
2729;DHT22;1372;47.956;7.830;2023-04-06T08:13:35;6.60;99.90
2729;DHT22;1372;47.956;7.830;2023-04-06T08:16:07;6.70;99.90
2729;DHT22;1372;47.956;7.830;2023-04-06T08:18:37;6.90;99.90
2729;DHT22;1372;47.956;7.830;2023-04-06T08:21:12;7.00;99.90
2729;DHT22;1372;47.956;7.830;2023-04-06T08:23:41;7.10;99.90
2729;DHT22;1372;47.956;7.830;2023-04-06T08:26:12;7.20;99.90
2729;DHT22;1372;47.956;7.830;2023-04-06T08:28:42;7.30;99.90
2729;DHT22;1372;47.956;7.830;2023-04-06T08:31:16;7.40;99.90
2729;DHT22;1372;47.956;7.830;2023-04-06T08:33:46;7.40;99.90
2729;DHT22;1372;47.956;7.830;2023-04-06T08:36:15;7.50;99.90
2729;DHT22;1372;47.956;7.830;2023-04-06T08:38:50;7.60;99.90
2729;DHT22;1372;47.956;7.830;2023-04-06T08:41:19;7.80;99.90
2729;DHT22;1372;47.956;7.830;2023-04-06T08:43:52;7.80;99.90
2729;DHT22;1372;47.956;7.830;2023-04-06T08:46:25;7.90;99.90
2729;DHT22;1372;47.956;7.830;2023-04-06T08:49:02;8.00;99.90
2729;DHT22;1372;47.956;7.830;2023-04-06T08:51:37;8.00;99.90
2729;DHT22;1372;47.956;7.830;2023-04-06T08:54:06;8.20;99.90
2729;DHT22;1372;47.956;7.830;2023-04-06T08:56:38;8.20;99.90
2729;DHT22;1372;47.956;7.830;2023-04-06T08:59:09;8.30;99.90
2729;DHT22;1372;47.956;7.830;2023-04-06T09:01:40;8.40;99.90
2729;DHT22;1372;47.956;7.830;2023-04-06T09:04:15;8.50;99.90
2729;DHT22;1372;47.956;7.830;2023-04-06T09:06:44;8.50;99.90
2729;DHT22;1372;47.956;7.830;2023-04-06T09:09:15;8.60;99.90
2729;DHT22;1372;47.956;7.830;2023-04-06T09:11:45;8.60;99.90
2729;DHT22;1372;47.956;7.830;2023-04-06T09:14:16;8.80;99.90
2729;DHT22;1372;47.956;7.830;2023-04-06T09:16:46;9.00;99.90
2729;DHT22;1372;47.956;7.830;2023-04-06T09:19:17;9.10;99.90
2729;DHT22;1372;47.956;7.830;2023-04-06T09:21:46;9.30;99.90
2729;DHT22;1372;47.956;7.830;2023-04-06T09:24:19;9.40;99.90
2729;DHT22;1372;47.956;7.830;2023-04-06T09:26:53;9.50;99.90
2729;DHT22;1372;47.956;7.830;2023-04-06T09:29:24;9.60;99.90
2729;DHT22;1372;47.956;7.830;2023-04-06T09:32:02;9.70;99.90
2729;DHT22;1372;47.956;7.830;2023-04-06T09:34:34;9.70;99.90
2729;DHT22;1372;47.956;7.830;2023-04-06T09:37:13;9.80;99.90
2729;DHT22;1372;47.956;7.830;2023-04-06T09:39:43;9.90;99.90
2729;DHT22;1372;47.956;7.830;2023-04-06T09:42:23;10.00;99.90
2729;DHT22;1372;47.956;7.830;2023-04-06T09:44:54;10.00;99.90
2729;DHT22;1372;47.956;7.830;2023-04-06T09:47:24;10.10;99.90
2729;DHT22;1372;47.956;7.830;2023-04-06T09:49:58;10.20;99.90
2729;DHT22;1372;47.956;7.830;2023-04-06T09:52:37;10.30;99.90
2729;DHT22;1372;47.956;7.830;2023-04-06T09:55:08;10.50;99.90
2729;DHT22;1372;47.956;7.830;2023-04-06T09:57:43;10.40;99.90
2729;DHT22;1372;47.956;7.830;2023-04-06T10:00:17;10.40;99.90
2729;DHT22;1372;47.956;7.830;2023-04-06T10:02:56;10.30;99.90
2729;DHT22;1372;47.956;7.830;2023-04-06T10:05:35;10.30;99.90
2729;DHT22;1372;47.956;7.830;2023-04-06T10:08:09;10.30;99.90
2729;DHT22;1372;47.956;7.830;2023-04-06T10:10:39;10.40;99.90
2729;DHT22;1372;47.956;7.830;2023-04-06T10:13:11;10.40;99.90
2729;DHT22;1372;47.956;7.830;2023-04-06T10:15:40;10.50;99.90
2729;DHT22;1372;47.956;7.830;2023-04-06T10:18:11;10.50;99.90
2729;DHT22;1372;47.956;7.830;2023-04-06T10:20:47;10.50;99.90
2729;DHT22;1372;47.956;7.830;2023-04-06T10:23:22;10.60;99.90
2729;DHT22;1372;47.956;7.830;2023-04-06T10:25:59;10.60;99.90
2729;DHT22;1372;47.956;7.830;2023-04-06T10:28:31;10.70;99.90
2729;DHT22;1372;47.956;7.830;2023-04-06T10:31:04;10.80;99.90
2729;DHT22;1372;47.956;7.830;2023-04-06T10:33:35;10.90;99.90
2729;DHT22;1372;47.956;7.830;2023-04-06T10:36:13;11.10;99.90
2729;DHT22;1372;47.956;7.830;2023-04-06T10:38:42;11.20;99.90
2729;DHT22;1372;47.956;7.830;2023-04-06T10:41:12;11.20;99.90
2729;DHT22;1372;47.956;7.830;2023-04-06T10:43:42;11.20;99.90
2729;DHT22;1372;47.956;7.830;2023-04-06T10:46:12;11.20;99.90
2729;DHT22;1372;47.956;7.830;2023-04-06T10:48:42;11.30;99.90
2729;DHT22;1372;47.956;7.830;2023-04-06T10:51:15;11.30;99.90
2729;DHT22;1372;47.956;7.830;2023-04-06T10:53:47;11.40;99.90
2729;DHT22;1372;47.956;7.830;2023-04-06T10:56:17;11.50;99.90
2729;DHT22;1372;47.956;7.830;2023-04-06T10:58:48;11.50;99.90
2729;DHT22;1372;47.956;7.830;2023-04-06T11:01:19;11.60;99.90
2729;DHT22;1372;47.956;7.830;2023-04-06T11:03:50;11.50;99.90
2729;DHT22;1372;47.956;7.830;2023-04-06T11:06:23;11.50;99.90
2729;DHT22;1372;47.956;7.830;2023-04-06T11:08:53;11.60;99.90
2729;DHT22;1372;47.956;7.830;2023-04-06T11:11:24;11.70;99.90
2729;DHT22;1372;47.956;7.830;2023-04-06T11:13:55;11.80;99.90
2729;DHT22;1372;47.956;7.830;2023-04-06T11:16:27;11.80;99.90
2729;DHT22;1372;47.956;7.830;2023-04-06T11:19:02;11.80;99.90
2729;DHT22;1372;47.956;7.830;2023-04-06T11:21:34;11.80;99.90
2729;DHT22;1372;47.956;7.830;2023-04-06T11:24:11;11.70;99.90
2729;DHT22;1372;47.956;7.830;2023-04-06T11:26:42;11.70;99.90
2729;DHT22;1372;47.956;7.830;2023-04-06T11:29:13;11.80;99.90
2729;DHT22;1372;47.956;7.830;2023-04-06T11:31:48;11.80;99.90
2729;DHT22;1372;47.956;7.830;2023-04-06T11:34:21;11.90;99.90
2729;DHT22;1372;47.956;7.830;2023-04-06T11:36:57;12.00;99.90
2729;DHT22;1372;47.956;7.830;2023-04-06T11:39:28;12.00;99.90
2729;DHT22;1372;47.956;7.830;2023-04-06T11:42:01;12.10;99.90
2729;DHT22;1372;47.956;7.830;2023-04-06T11:44:34;12.20;99.90
2729;DHT22;1372;47.956;7.830;2023-04-06T11:47:05;12.30;99.90
2729;DHT22;1372;47.956;7.830;2023-04-06T11:49:37;12.40;99.90
2729;DHT22;1372;47.956;7.830;2023-04-06T11:52:16;12.40;99.90
2729;DHT22;1372;47.956;7.830;2023-04-06T11:54:47;12.50;99.90
2729;DHT22;1372;47.956;7.830;2023-04-06T11:57:18;12.60;99.90
2729;DHT22;1372;47.956;7.830;2023-04-06T11:59:50;12.70;99.90
2729;DHT22;1372;47.956;7.830;2023-04-06T12:02:21;12.50;99.90
2729;DHT22;1372;47.956;7.830;2023-04-06T12:04:50;12.60;99.90
2729;DHT22;1372;47.956;7.830;2023-04-06T12:07:24;12.70;99.90
2729;DHT22;1372;47.956;7.830;2023-04-06T12:09:53;12.70;99.90
2729;DHT22;1372;47.956;7.830;2023-04-06T12:12:22;12.60;99.90
2729;DHT22;1372;47.956;7.830;2023-04-06T12:14:52;12.70;99.90
2729;DHT22;1372;47.956;7.830;2023-04-06T12:17:21;12.70;99.90
2729;DHT22;1372;47.956;7.830;2023-04-06T12:19:50;12.70;99.90
2729;DHT22;1372;47.956;7.830;2023-04-06T12:22:19;12.60;99.90
2729;DHT22;1372;47.956;7.830;2023-04-06T12:24:50;12.60;99.90
2729;DHT22;1372;47.956;7.830;2023-04-06T12:27:21;12.70;99.90
2729;DHT22;1372;47.956;7.830;2023-04-06T12:29:51;12.80;99.90
2729;DHT22;1372;47.956;7.830;2023-04-06T12:32:20;12.90;99.90
2729;DHT22;1372;47.956;7.830;2023-04-06T12:34:50;12.70;99.90
2729;DHT22;1372;47.956;7.830;2023-04-06T12:37:20;12.70;99.90
2729;DHT22;1372;47.956;7.830;2023-04-06T12:44:29;12.80;99.90
2729;DHT22;1372;47.956;7.830;2023-04-06T12:46:58;12.80;99.90
2729;DHT22;1372;47.956;7.830;2023-04-06T12:49:28;12.90;99.90
2729;DHT22;1372;47.956;7.830;2023-04-06T12:51:58;12.90;99.90
2729;DHT22;1372;47.956;7.830;2023-04-06T12:54:27;13.00;99.90
2729;DHT22;1372;47.956;7.830;2023-04-06T12:56:56;13.10;99.90
2729;DHT22;1372;47.956;7.830;2023-04-06T12:59:29;13.20;99.90
2729;DHT22;1372;47.956;7.830;2023-04-06T13:02:03;13.10;99.90
2729;DHT22;1372;47.956;7.830;2023-04-06T13:04:33;13.20;99.90
2729;DHT22;1372;47.956;7.830;2023-04-06T13:07:03;13.20;99.90
2729;DHT22;1372;47.956;7.830;2023-04-06T13:09:34;13.10;99.90
2729;DHT22;1372;47.956;7.830;2023-04-06T13:12:03;13.10;99.90
2729;DHT22;1372;47.956;7.830;2023-04-06T13:14:34;13.10;99.90
2729;DHT22;1372;47.956;7.830;2023-04-06T13:17:03;13.20;99.90
2729;DHT22;1372;47.956;7.830;2023-04-06T13:19:32;13.30;99.90
2729;DHT22;1372;47.956;7.830;2023-04-06T13:22:01;13.20;99.90
2729;DHT22;1372;47.956;7.830;2023-04-06T13:24:30;13.30;99.90
2729;DHT22;1372;47.956;7.830;2023-04-06T13:26:59;13.40;99.90
2729;DHT22;1372;47.956;7.830;2023-04-06T13:29:28;13.50;99.90
2729;DHT22;1372;47.956;7.830;2023-04-06T13:31:58;13.50;99.90
2729;DHT22;1372;47.956;7.830;2023-04-06T13:34:27;13.60;99.90
2729;DHT22;1372;47.956;7.830;2023-04-06T13:36:57;13.70;99.90
2729;DHT22;1372;47.956;7.830;2023-04-06T13:39:25;13.70;99.90
2729;DHT22;1372;47.956;7.830;2023-04-06T13:41:55;13.80;99.90
2729;DHT22;1372;47.956;7.830;2023-04-06T13:44:28;13.70;99.90
2729;DHT22;1372;47.956;7.830;2023-04-06T13:46:59;13.70;99.90
2729;DHT22;1372;47.956;7.830;2023-04-06T13:49:30;13.60;99.90
2729;DHT22;1372;47.956;7.830;2023-04-06T13:51:59;13.60;99.90
2729;DHT22;1372;47.956;7.830;2023-04-06T13:54:30;13.50;99.90
2729;DHT22;1372;47.956;7.830;2023-04-06T13:56:59;13.50;99.90
2729;DHT22;1372;47.956;7.830;2023-04-06T13:59:34;13.60;99.90
2729;DHT22;1372;47.956;7.830;2023-04-06T14:02:07;13.60;99.50
2729;DHT22;1372;47.956;7.830;2023-04-06T14:04:37;13.50;99.90
2729;DHT22;1372;47.956;7.830;2023-04-06T14:07:06;13.40;99.90
2729;DHT22;1372;47.956;7.830;2023-04-06T14:09:35;13.30;99.90
2729;DHT22;1372;47.956;7.830;2023-04-06T14:12:05;13.30;99.90
2729;DHT22;1372;47.956;7.830;2023-04-06T14:14:33;13.40;99.90
2729;DHT22;1372;47.956;7.830;2023-04-06T14:17:03;13.40;99.90
2729;DHT22;1372;47.956;7.830;2023-04-06T14:19:32;13.40;99.90
2729;DHT22;1372;47.956;7.830;2023-04-06T14:22:01;13.20;99.90
2729;DHT22;1372;47.956;7.830;2023-04-06T14:24:31;13.20;99.90
2729;DHT22;1372;47.956;7.830;2023-04-06T14:27:00;13.20;99.90
2729;DHT22;1372;47.956;7.830;2023-04-06T14:29:29;13.20;99.90
2729;DHT22;1372;47.956;7.830;2023-04-06T14:32:00;13.10;99.90
2729;DHT22;1372;47.956;7.830;2023-04-06T14:34:36;13.10;99.90
2729;DHT22;1372;47.956;7.830;2023-04-06T14:37:05;13.10;99.90
2729;DHT22;1372;47.956;7.830;2023-04-06T14:39:34;13.00;99.90
2729;DHT22;1372;47.956;7.830;2023-04-06T14:42:03;13.00;99.90
2729;DHT22;1372;47.956;7.830;2023-04-06T14:44:33;13.10;99.90
2729;DHT22;1372;47.956;7.830;2023-04-06T14:47:04;13.10;99.90
2729;DHT22;1372;47.956;7.830;2023-04-06T14:49:34;13.00;99.90
2729;DHT22;1372;47.956;7.830;2023-04-06T14:52:04;13.00;99.90
2729;DHT22;1372;47.956;7.830;2023-04-06T14:54:33;13.00;99.90
2729;DHT22;1372;47.956;7.830;2023-04-06T14:57:02;13.00;99.90
2729;DHT22;1372;47.956;7.830;2023-04-06T14:59:31;13.00;99.90
2729;DHT22;1372;47.956;7.830;2023-04-06T15:02:02;12.90;99.90
2729;DHT22;1372;47.956;7.830;2023-04-06T15:04:35;12.90;99.90
2729;DHT22;1372;47.956;7.830;2023-04-06T15:07:06;12.90;99.90
2729;DHT22;1372;47.956;7.830;2023-04-06T15:09:36;12.90;99.90
2729;DHT22;1372;47.956;7.830;2023-04-06T15:12:05;12.90;99.90
2729;DHT22;1372;47.956;7.830;2023-04-06T15:14:34;12.80;99.90
2729;DHT22;1372;47.956;7.830;2023-04-06T15:17:05;12.80;99.90
2729;DHT22;1372;47.956;7.830;2023-04-06T15:19:35;12.70;99.90
2729;DHT22;1372;47.956;7.830;2023-04-06T15:22:05;12.70;99.90
2729;DHT22;1372;47.956;7.830;2023-04-06T15:24:33;12.70;99.90
2729;DHT22;1372;47.956;7.830;2023-04-06T15:27:03;12.70;99.90
2729;DHT22;1372;47.956;7.830;2023-04-06T15:29:32;12.60;99.90
2729;DHT22;1372;47.956;7.830;2023-04-06T15:32:03;12.60;99.90
2729;DHT22;1372;47.956;7.830;2023-04-06T15:34:32;12.50;99.90
2729;DHT22;1372;47.956;7.830;2023-04-06T15:37:02;12.40;99.90
2729;DHT22;1372;47.956;7.830;2023-04-06T15:39:33;12.30;99.90
2729;DHT22;1372;47.956;7.830;2023-04-06T15:42:03;12.30;99.90
2729;DHT22;1372;47.956;7.830;2023-04-06T15:44:32;12.20;99.90
2729;DHT22;1372;47.956;7.830;2023-04-06T15:47:03;12.20;99.90
2729;DHT22;1372;47.956;7.830;2023-04-06T15:49:33;12.10;99.90
2729;DHT22;1372;47.956;7.830;2023-04-06T15:52:03;12.10;99.90
2729;DHT22;1372;47.956;7.830;2023-04-06T15:54:32;12.10;99.90
2729;DHT22;1372;47.956;7.830;2023-04-06T15:57:02;12.10;99.90
2729;DHT22;1372;47.956;7.830;2023-04-06T15:59:31;12.00;99.90
2729;DHT22;1372;47.956;7.830;2023-04-06T16:02:00;12.00;99.90
2729;DHT22;1372;47.956;7.830;2023-04-06T16:04:29;12.00;99.90
2729;DHT22;1372;47.956;7.830;2023-04-06T16:06:58;12.00;99.90
2729;DHT22;1372;47.956;7.830;2023-04-06T16:09:29;11.90;99.90
2729;DHT22;1372;47.956;7.830;2023-04-06T16:11:58;11.90;99.90
2729;DHT22;1372;47.956;7.830;2023-04-06T16:14:27;11.90;99.90
2729;DHT22;1372;47.956;7.830;2023-04-06T16:16:56;12.00;99.90
2729;DHT22;1372;47.956;7.830;2023-04-06T16:19:25;12.10;99.90
2729;DHT22;1372;47.956;7.830;2023-04-06T16:21:54;12.20;99.90
2729;DHT22;1372;47.956;7.830;2023-04-06T16:24:23;12.20;99.90
2729;DHT22;1372;47.956;7.830;2023-04-06T16:26:54;12.00;99.90
2729;DHT22;1372;47.956;7.830;2023-04-06T16:29:24;12.00;99.90
2729;DHT22;1372;47.956;7.830;2023-04-06T16:31:56;12.00;99.90
2729;DHT22;1372;47.956;7.830;2023-04-06T16:34:29;12.00;99.90
2729;DHT22;1372;47.956;7.830;2023-04-06T16:36:58;11.90;99.90